sensor_id;sensor_type;location;lat;lon;timestamp;P1;durP1;ratioP1;P2;durP2;ratioP2
37529;SDS011;23374;52.758;6.872;2022-08-02T00:01:47;3.87;;;1.90;;
37529;SDS011;23374;52.758;6.872;2022-08-02T00:04:07;4.37;;;2.33;;
37529;SDS011;23374;52.758;6.872;2022-08-02T00:06:29;6.33;;;2.17;;
37529;SDS011;23374;52.758;6.872;2022-08-02T00:08:49;3.73;;;1.83;;
37529;SDS011;23374;52.758;6.872;2022-08-02T00:11:10;2.33;;;1.70;;
37529;SDS011;23374;52.758;6.872;2022-08-02T00:13:30;5.50;;;1.67;;
37529;SDS011;23374;52.758;6.872;2022-08-02T00:15:51;7.83;;;2.20;;
37529;SDS011;23374;52.758;6.872;2022-08-02T00:18:11;3.27;;;2.00;;
37529;SDS011;23374;52.758;6.872;2022-08-02T00:20:31;4.57;;;1.80;;
37529;SDS011;23374;52.758;6.872;2022-08-02T00:24:13;3.57;;;1.73;;
37529;SDS011;23374;52.758;6.872;2022-08-02T00:26:34;3.77;;;2.10;;
37529;SDS011;23374;52.758;6.872;2022-08-02T00:28:54;4.33;;;2.00;;
37529;SDS011;23374;52.758;6.872;2022-08-02T00:31:14;6.77;;;2.23;;
37529;SDS011;23374;52.758;6.872;2022-08-02T00:33:34;5.17;;;1.90;;
37529;SDS011;23374;52.758;6.872;2022-08-02T00:35:55;7.10;;;2.47;;
37529;SDS011;23374;52.758;6.872;2022-08-02T00:38:15;3.87;;;2.10;;
37529;SDS011;23374;52.758;6.872;2022-08-02T00:40:35;3.50;;;2.17;;
37529;SDS011;23374;52.758;6.872;2022-08-02T00:43:04;5.93;;;2.33;;
37529;SDS011;23374;52.758;6.872;2022-08-02T00:45:26;5.77;;;2.20;;
37529;SDS011;23374;52.758;6.872;2022-08-02T00:47:47;2.87;;;1.87;;
37529;SDS011;23374;52.758;6.872;2022-08-02T00:50:08;4.53;;;2.30;;
37529;SDS011;23374;52.758;6.872;2022-08-02T00:52:29;4.63;;;2.20;;
37529;SDS011;23374;52.758;6.872;2022-08-02T00:54:49;3.37;;;2.10;;
37529;SDS011;23374;52.758;6.872;2022-08-02T00:57:09;4.33;;;1.80;;
37529;SDS011;23374;52.758;6.872;2022-08-02T00:59:29;5.07;;;1.73;;
37529;SDS011;23374;52.758;6.872;2022-08-02T01:01:49;3.63;;;1.80;;
37529;SDS011;23374;52.758;6.872;2022-08-02T01:04:12;5.50;;;2.60;;
37529;SDS011;23374;52.758;6.872;2022-08-02T01:06:33;6.53;;;2.17;;
37529;SDS011;23374;52.758;6.872;2022-08-02T01:08:55;6.40;;;2.50;;
37529;SDS011;23374;52.758;6.872;2022-08-02T01:11:15;7.93;;;2.70;;
37529;SDS011;23374;52.758;6.872;2022-08-02T01:13:35;7.00;;;2.67;;
37529;SDS011;23374;52.758;6.872;2022-08-02T01:16:05;4.83;;;2.60;;
37529;SDS011;23374;52.758;6.872;2022-08-02T01:18:37;7.97;;;2.63;;
37529;SDS011;23374;52.758;6.872;2022-08-02T01:21:17;6.03;;;2.47;;
37529;SDS011;23374;52.758;6.872;2022-08-02T01:24:32;4.67;;;2.53;;
37529;SDS011;23374;52.758;6.872;2022-08-02T01:27:27;7.00;;;2.97;;
37529;SDS011;23374;52.758;6.872;2022-08-02T01:37:48;8.10;;;2.50;;
37529;SDS011;23374;52.758;6.872;2022-08-02T01:40:18;4.80;;;2.30;;
37529;SDS011;23374;52.758;6.872;2022-08-02T01:42:47;5.47;;;2.43;;
37529;SDS011;23374;52.758;6.872;2022-08-02T01:45:11;3.33;;;2.17;;
37529;SDS011;23374;52.758;6.872;2022-08-02T01:47:35;8.60;;;2.80;;
37529;SDS011;23374;52.758;6.872;2022-08-02T01:49:59;4.77;;;2.80;;
37529;SDS011;23374;52.758;6.872;2022-08-02T01:52:21;6.67;;;2.40;;
37529;SDS011;23374;52.758;6.872;2022-08-02T01:54:47;9.80;;;3.20;;
37529;SDS011;23374;52.758;6.872;2022-08-02T01:57:26;5.67;;;3.07;;
37529;SDS011;23374;52.758;6.872;2022-08-02T02:00:11;7.37;;;2.70;;
37529;SDS011;23374;52.758;6.872;2022-08-02T02:02:36;5.47;;;2.97;;
37529;SDS011;23374;52.758;6.872;2022-08-02T02:05:01;8.33;;;2.60;;
37529;SDS011;23374;52.758;6.872;2022-08-02T02:07:21;8.40;;;3.03;;
37529;SDS011;23374;52.758;6.872;2022-08-02T02:09:43;8.23;;;2.80;;
37529;SDS011;23374;52.758;6.872;2022-08-02T02:12:05;7.07;;;3.07;;
37529;SDS011;23374;52.758;6.872;2022-08-02T02:14:28;5.33;;;2.63;;
37529;SDS011;23374;52.758;6.872;2022-08-02T02:16:49;4.50;;;2.67;;
37529;SDS011;23374;52.758;6.872;2022-08-02T02:19:10;5.83;;;2.97;;
37529;SDS011;23374;52.758;6.872;2022-08-02T02:21:35;5.90;;;2.57;;
37529;SDS011;23374;52.758;6.872;2022-08-02T02:24:24;8.53;;;3.10;;
37529;SDS011;23374;52.758;6.872;2022-08-02T02:26:44;8.27;;;2.77;;
37529;SDS011;23374;52.758;6.872;2022-08-02T02:29:06;8.83;;;3.00;;
37529;SDS011;23374;52.758;6.872;2022-08-02T02:31:43;4.83;;;2.90;;
37529;SDS011;23374;52.758;6.872;2022-08-02T02:34:25;8.00;;;2.63;;
37529;SDS011;23374;52.758;6.872;2022-08-02T02:36:49;7.13;;;3.27;;
37529;SDS011;23374;52.758;6.872;2022-08-02T02:39:11;5.23;;;3.10;;
37529;SDS011;23374;52.758;6.872;2022-08-02T02:41:33;8.03;;;3.03;;
37529;SDS011;23374;52.758;6.872;2022-08-02T02:43:59;11.07;;;3.30;;
37529;SDS011;23374;52.758;6.872;2022-08-02T02:46:21;6.03;;;2.67;;
37529;SDS011;23374;52.758;6.872;2022-08-02T02:48:43;7.07;;;3.00;;
37529;SDS011;23374;52.758;6.872;2022-08-02T02:51:04;4.77;;;2.53;;
37529;SDS011;23374;52.758;6.872;2022-08-02T02:53:26;11.87;;;3.37;;
37529;SDS011;23374;52.758;6.872;2022-08-02T02:55:48;6.73;;;2.83;;
37529;SDS011;23374;52.758;6.872;2022-08-02T02:58:09;8.27;;;3.00;;
37529;SDS011;23374;52.758;6.872;2022-08-02T03:00:30;11.20;;;3.10;;
37529;SDS011;23374;52.758;6.872;2022-08-02T03:03:10;8.43;;;3.27;;
37529;SDS011;23374;52.758;6.872;2022-08-02T03:05:31;6.73;;;3.00;;
37529;SDS011;23374;52.758;6.872;2022-08-02T03:07:52;9.53;;;3.80;;
37529;SDS011;23374;52.758;6.872;2022-08-02T03:10:13;4.63;;;2.73;;
37529;SDS011;23374;52.758;6.872;2022-08-02T03:12:33;8.43;;;3.20;;
37529;SDS011;23374;52.758;6.872;2022-08-02T03:14:57;11.97;;;3.60;;
37529;SDS011;23374;52.758;6.872;2022-08-02T03:17:18;6.87;;;3.17;;
37529;SDS011;23374;52.758;6.872;2022-08-02T03:19:38;4.80;;;2.93;;
37529;SDS011;23374;52.758;6.872;2022-08-02T03:21:58;4.27;;;3.47;;
37529;SDS011;23374;52.758;6.872;2022-08-02T03:24:18;7.50;;;3.37;;
37529;SDS011;23374;52.758;6.872;2022-08-02T03:26:39;7.00;;;2.70;;
37529;SDS011;23374;52.758;6.872;2022-08-02T03:29:00;7.87;;;3.37;;
37529;SDS011;23374;52.758;6.872;2022-08-02T03:31:21;7.93;;;3.43;;
37529;SDS011;23374;52.758;6.872;2022-08-02T03:33:41;3.73;;;2.80;;
37529;SDS011;23374;52.758;6.872;2022-08-02T03:36:06;8.17;;;3.40;;
37529;SDS011;23374;52.758;6.872;2022-08-02T03:38:29;6.73;;;2.80;;
37529;SDS011;23374;52.758;6.872;2022-08-02T03:40:52;6.70;;;2.87;;
37529;SDS011;23374;52.758;6.872;2022-08-02T03:43:15;8.27;;;3.33;;
37529;SDS011;23374;52.758;6.872;2022-08-02T03:45:38;6.27;;;3.40;;
37529;SDS011;23374;52.758;6.872;2022-08-02T03:48:00;6.33;;;3.20;;
37529;SDS011;23374;52.758;6.872;2022-08-02T03:50:23;6.40;;;3.23;;
37529;SDS011;23374;52.758;6.872;2022-08-02T03:52:44;6.17;;;3.33;;
37529;SDS011;23374;52.758;6.872;2022-08-02T03:55:05;5.70;;;2.77;;
37529;SDS011;23374;52.758;6.872;2022-08-02T03:57:26;8.03;;;3.00;;
37529;SDS011;23374;52.758;6.872;2022-08-02T03:59:46;5.97;;;3.20;;
37529;SDS011;23374;52.758;6.872;2022-08-02T04:02:06;5.53;;;3.57;;
37529;SDS011;23374;52.758;6.872;2022-08-02T04:04:26;6.33;;;3.13;;
37529;SDS011;23374;52.758;6.872;2022-08-02T04:06:46;8.60;;;3.37;;
37529;SDS011;23374;52.758;6.872;2022-08-02T04:09:08;5.60;;;3.20;;
37529;SDS011;23374;52.758;6.872;2022-08-02T04:11:28;8.13;;;3.27;;
37529;SDS011;23374;52.758;6.872;2022-08-02T04:13:52;6.77;;;3.07;;
37529;SDS011;23374;52.758;6.872;2022-08-02T04:16:19;6.53;;;3.40;;
37529;SDS011;23374;52.758;6.872;2022-08-02T04:18:49;6.60;;;3.50;;
37529;SDS011;23374;52.758;6.872;2022-08-02T04:21:14;5.60;;;3.43;;
37529;SDS011;23374;52.758;6.872;2022-08-02T04:23:38;9.90;;;3.77;;
37529;SDS011;23374;52.758;6.872;2022-08-02T04:26:00;8.00;;;3.33;;
37529;SDS011;23374;52.758;6.872;2022-08-02T04:28:22;7.70;;;3.27;;
37529;SDS011;23374;52.758;6.872;2022-08-02T04:30:45;10.90;;;3.70;;
37529;SDS011;23374;52.758;6.872;2022-08-02T04:33:06;8.80;;;3.53;;
37529;SDS011;23374;52.758;6.872;2022-08-02T04:35:27;7.40;;;3.40;;
37529;SDS011;23374;52.758;6.872;2022-08-02T04:37:48;7.27;;;3.80;;
37529;SDS011;23374;52.758;6.872;2022-08-02T04:40:10;4.57;;;2.93;;
37529;SDS011;23374;52.758;6.872;2022-08-02T04:42:31;5.90;;;3.63;;
37529;SDS011;23374;52.758;6.872;2022-08-02T04:44:51;9.90;;;4.03;;
37529;SDS011;23374;52.758;6.872;2022-08-02T04:47:12;9.67;;;4.23;;
37529;SDS011;23374;52.758;6.872;2022-08-02T04:49:33;6.47;;;3.90;;
37529;SDS011;23374;52.758;6.872;2022-08-02T04:51:53;9.53;;;3.83;;
37529;SDS011;23374;52.758;6.872;2022-08-02T04:54:13;8.10;;;3.67;;
37529;SDS011;23374;52.758;6.872;2022-08-02T04:56:33;8.13;;;3.93;;
37529;SDS011;23374;52.758;6.872;2022-08-02T04:58:53;10.83;;;4.13;;
37529;SDS011;23374;52.758;6.872;2022-08-02T05:01:14;7.33;;;3.67;;
37529;SDS011;23374;52.758;6.872;2022-08-02T05:03:34;7.40;;;3.87;;
37529;SDS011;23374;52.758;6.872;2022-08-02T05:05:54;7.97;;;4.07;;
37529;SDS011;23374;52.758;6.872;2022-08-02T05:08:14;11.90;;;3.97;;
37529;SDS011;23374;52.758;6.872;2022-08-02T05:10:34;13.07;;;4.10;;
37529;SDS011;23374;52.758;6.872;2022-08-02T05:12:54;8.93;;;3.67;;
37529;SDS011;23374;52.758;6.872;2022-08-02T05:15:14;10.33;;;3.80;;
37529;SDS011;23374;52.758;6.872;2022-08-02T05:17:37;8.43;;;3.77;;
37529;SDS011;23374;52.758;6.872;2022-08-02T05:19:57;6.63;;;3.17;;
37529;SDS011;23374;52.758;6.872;2022-08-02T05:22:18;5.70;;;3.10;;
37529;SDS011;23374;52.758;6.872;2022-08-02T05:24:38;6.17;;;3.30;;
37529;SDS011;23374;52.758;6.872;2022-08-02T05:26:58;9.67;;;3.57;;
37529;SDS011;23374;52.758;6.872;2022-08-02T05:29:18;9.07;;;3.83;;
37529;SDS011;23374;52.758;6.872;2022-08-02T05:31:38;7.30;;;3.37;;
37529;SDS011;23374;52.758;6.872;2022-08-02T05:33:58;8.53;;;3.80;;
37529;SDS011;23374;52.758;6.872;2022-08-02T05:36:18;10.13;;;3.10;;
37529;SDS011;23374;52.758;6.872;2022-08-02T05:38:38;6.50;;;2.97;;
37529;SDS011;23374;52.758;6.872;2022-08-02T05:40:58;6.73;;;2.90;;
37529;SDS011;23374;52.758;6.872;2022-08-02T05:43:18;5.00;;;3.17;;
37529;SDS011;23374;52.758;6.872;2022-08-02T05:45:40;11.27;;;3.50;;
37529;SDS011;23374;52.758;6.872;2022-08-02T05:48:00;7.20;;;3.33;;
37529;SDS011;23374;52.758;6.872;2022-08-02T05:50:20;4.90;;;2.90;;
37529;SDS011;23374;52.758;6.872;2022-08-02T05:56:24;7.83;;;3.00;;
37529;SDS011;23374;52.758;6.872;2022-08-02T05:59:02;5.73;;;2.83;;
37529;SDS011;23374;52.758;6.872;2022-08-02T06:01:38;5.00;;;2.90;;
37529;SDS011;23374;52.758;6.872;2022-08-02T06:04:04;6.73;;;3.30;;
37529;SDS011;23374;52.758;6.872;2022-08-02T06:06:26;4.80;;;3.23;;
37529;SDS011;23374;52.758;6.872;2022-08-02T06:08:55;4.43;;;2.80;;
37529;SDS011;23374;52.758;6.872;2022-08-02T06:11:22;7.43;;;3.00;;
37529;SDS011;23374;52.758;6.872;2022-08-02T06:13:47;9.70;;;3.77;;
37529;SDS011;23374;52.758;6.872;2022-08-02T06:16:08;6.00;;;3.40;;
37529;SDS011;23374;52.758;6.872;2022-08-02T06:18:29;6.73;;;2.93;;
37529;SDS011;23374;52.758;6.872;2022-08-02T06:20:52;7.03;;;3.07;;
37529;SDS011;23374;52.758;6.872;2022-08-02T06:23:15;7.73;;;3.33;;
37529;SDS011;23374;52.758;6.872;2022-08-02T06:25:40;6.77;;;4.10;;
37529;SDS011;23374;52.758;6.872;2022-08-02T06:28:04;9.27;;;3.50;;
37529;SDS011;23374;52.758;6.872;2022-08-02T06:30:25;7.53;;;3.03;;
37529;SDS011;23374;52.758;6.872;2022-08-02T06:32:49;6.07;;;3.10;;
37529;SDS011;23374;52.758;6.872;2022-08-02T06:35:10;5.50;;;3.30;;
37529;SDS011;23374;52.758;6.872;2022-08-02T06:37:40;6.37;;;3.40;;
37529;SDS011;23374;52.758;6.872;2022-08-02T06:40:13;8.33;;;3.17;;
37529;SDS011;23374;52.758;6.872;2022-08-02T06:42:51;6.13;;;3.27;;
37529;SDS011;23374;52.758;6.872;2022-08-02T06:48:47;10.77;;;3.37;;
37529;SDS011;23374;52.758;6.872;2022-08-02T06:51:07;4.60;;;2.83;;
37529;SDS011;23374;52.758;6.872;2022-08-02T06:53:27;4.47;;;3.17;;
37529;SDS011;23374;52.758;6.872;2022-08-02T06:55:48;6.20;;;3.23;;
37529;SDS011;23374;52.758;6.872;2022-08-02T06:58:08;3.93;;;2.83;;
37529;SDS011;23374;52.758;6.872;2022-08-02T07:00:30;6.43;;;3.43;;
37529;SDS011;23374;52.758;6.872;2022-08-02T07:02:50;7.87;;;3.10;;
37529;SDS011;23374;52.758;6.872;2022-08-02T07:05:11;6.97;;;2.97;;
37529;SDS011;23374;52.758;6.872;2022-08-02T07:07:32;6.87;;;3.10;;
37529;SDS011;23374;52.758;6.872;2022-08-02T07:09:52;6.07;;;2.90;;
37529;SDS011;23374;52.758;6.872;2022-08-02T07:12:13;5.33;;;2.87;;
37529;SDS011;23374;52.758;6.872;2022-08-02T07:14:33;4.83;;;2.87;;
37529;SDS011;23374;52.758;6.872;2022-08-02T07:16:53;4.47;;;2.47;;
37529;SDS011;23374;52.758;6.872;2022-08-02T07:19:13;7.50;;;2.77;;
37529;SDS011;23374;52.758;6.872;2022-08-02T07:21:33;6.30;;;2.53;;
37529;SDS011;23374;52.758;6.872;2022-08-02T07:23:53;5.77;;;2.70;;
37529;SDS011;23374;52.758;6.872;2022-08-02T07:26:13;3.87;;;2.30;;
37529;SDS011;23374;52.758;6.872;2022-08-02T07:28:34;7.50;;;2.77;;
37529;SDS011;23374;52.758;6.872;2022-08-02T07:30:54;7.07;;;2.80;;
37529;SDS011;23374;52.758;6.872;2022-08-02T07:33:14;5.90;;;2.33;;
37529;SDS011;23374;52.758;6.872;2022-08-02T07:35:34;5.00;;;2.00;;
37529;SDS011;23374;52.758;6.872;2022-08-02T07:37:55;6.27;;;2.73;;
37529;SDS011;23374;52.758;6.872;2022-08-02T07:40:15;6.77;;;2.07;;
37529;SDS011;23374;52.758;6.872;2022-08-02T07:42:35;3.30;;;1.80;;
37529;SDS011;23374;52.758;6.872;2022-08-02T07:44:56;5.33;;;2.17;;
37529;SDS011;23374;52.758;6.872;2022-08-02T07:47:16;3.17;;;2.03;;
37529;SDS011;23374;52.758;6.872;2022-08-02T07:49:37;4.97;;;2.00;;
37529;SDS011;23374;52.758;6.872;2022-08-02T07:51:57;2.83;;;2.00;;
37529;SDS011;23374;52.758;6.872;2022-08-02T07:54:17;4.73;;;1.90;;
37529;SDS011;23374;52.758;6.872;2022-08-02T07:56:38;5.70;;;1.80;;
37529;SDS011;23374;52.758;6.872;2022-08-02T07:58:58;4.43;;;1.60;;
37529;SDS011;23374;52.758;6.872;2022-08-02T08:01:19;3.23;;;1.30;;
37529;SDS011;23374;52.758;6.872;2022-08-02T08:03:39;3.13;;;1.43;;
37529;SDS011;23374;52.758;6.872;2022-08-02T08:05:59;5.47;;;1.97;;
37529;SDS011;23374;52.758;6.872;2022-08-02T08:08:20;3.00;;;1.70;;
37529;SDS011;23374;52.758;6.872;2022-08-02T08:10:40;2.93;;;1.60;;
37529;SDS011;23374;52.758;6.872;2022-08-02T08:13:00;4.33;;;1.77;;
37529;SDS011;23374;52.758;6.872;2022-08-02T08:15:20;2.47;;;1.50;;
37529;SDS011;23374;52.758;6.872;2022-08-02T08:17:41;5.07;;;1.53;;
37529;SDS011;23374;52.758;6.872;2022-08-02T08:20:02;3.70;;;1.60;;
37529;SDS011;23374;52.758;6.872;2022-08-02T08:22:24;2.10;;;1.60;;
37529;SDS011;23374;52.758;6.872;2022-08-02T08:24:44;3.47;;;1.40;;
37529;SDS011;23374;52.758;6.872;2022-08-02T08:27:05;2.27;;;1.50;;
37529;SDS011;23374;52.758;6.872;2022-08-02T08:29:25;3.00;;;1.40;;
37529;SDS011;23374;52.758;6.872;2022-08-02T08:31:46;1.67;;;1.23;;
37529;SDS011;23374;52.758;6.872;2022-08-02T08:34:06;4.47;;;1.70;;
37529;SDS011;23374;52.758;6.872;2022-08-02T08:36:27;3.07;;;1.40;;
37529;SDS011;23374;52.758;6.872;2022-08-02T08:38:47;2.30;;;1.80;;
37529;SDS011;23374;52.758;6.872;2022-08-02T08:41:09;5.93;;;1.80;;
37529;SDS011;23374;52.758;6.872;2022-08-02T08:43:30;1.90;;;1.23;;
37529;SDS011;23374;52.758;6.872;2022-08-02T08:45:50;3.93;;;1.60;;
37529;SDS011;23374;52.758;6.872;2022-08-02T08:48:12;4.60;;;1.40;;
37529;SDS011;23374;52.758;6.872;2022-08-02T08:50:34;3.53;;;1.63;;
37529;SDS011;23374;52.758;6.872;2022-08-02T08:53:03;2.50;;;1.50;;
37529;SDS011;23374;52.758;6.872;2022-08-02T08:55:25;6.03;;;1.30;;
37529;SDS011;23374;52.758;6.872;2022-08-02T08:57:46;2.73;;;1.60;;
37529;SDS011;23374;52.758;6.872;2022-08-02T09:00:09;5.43;;;1.43;;
37529;SDS011;23374;52.758;6.872;2022-08-02T09:02:35;2.50;;;1.10;;
37529;SDS011;23374;52.758;6.872;2022-08-02T09:04:56;2.93;;;1.37;;
37529;SDS011;23374;52.758;6.872;2022-08-02T09:07:16;4.07;;;1.20;;
37529;SDS011;23374;52.758;6.872;2022-08-02T09:09:36;1.30;;;1.00;;
37529;SDS011;23374;52.758;6.872;2022-08-02T09:12:16;6.07;;;1.40;;
37529;SDS011;23374;52.758;6.872;2022-08-02T09:14:38;2.67;;;1.10;;
37529;SDS011;23374;52.758;6.872;2022-08-02T09:17:09;3.13;;;1.10;;
37529;SDS011;23374;52.758;6.872;2022-08-02T09:19:31;1.67;;;0.80;;
37529;SDS011;23374;52.758;6.872;2022-08-02T09:22:06;1.93;;;1.10;;
37529;SDS011;23374;52.758;6.872;2022-08-02T09:24:28;2.77;;;1.33;;
37529;SDS011;23374;52.758;6.872;2022-08-02T09:26:49;2.00;;;1.03;;
37529;SDS011;23374;52.758;6.872;2022-08-02T09:29:10;1.40;;;1.03;;
37529;SDS011;23374;52.758;6.872;2022-08-02T09:31:32;1.40;;;1.03;;
37529;SDS011;23374;52.758;6.872;2022-08-02T09:33:55;2.30;;;1.17;;
37529;SDS011;23374;52.758;6.872;2022-08-02T09:36:16;1.97;;;0.90;;
37529;SDS011;23374;52.758;6.872;2022-08-02T09:38:38;2.17;;;0.93;;
37529;SDS011;23374;52.758;6.872;2022-08-02T09:40:59;3.33;;;1.10;;
37529;SDS011;23374;52.758;6.872;2022-08-02T09:43:20;3.07;;;1.40;;
37529;SDS011;23374;52.758;6.872;2022-08-02T09:45:55;1.63;;;1.10;;
37529;SDS011;23374;52.758;6.872;2022-08-02T09:48:16;4.63;;;1.40;;
37529;SDS011;23374;52.758;6.872;2022-08-02T09:50:38;3.43;;;1.40;;
37529;SDS011;23374;52.758;6.872;2022-08-02T09:52:59;1.83;;;1.30;;
37529;SDS011;23374;52.758;6.872;2022-08-02T09:55:22;2.70;;;1.90;;
37529;SDS011;23374;52.758;6.872;2022-08-02T09:57:43;5.13;;;1.50;;
37529;SDS011;23374;52.758;6.872;2022-08-02T10:00:08;4.20;;;1.50;;
37529;SDS011;23374;52.758;6.872;2022-08-02T10:02:30;6.17;;;1.60;;
37529;SDS011;23374;52.758;6.872;2022-08-02T10:04:50;6.30;;;2.13;;
37529;SDS011;23374;52.758;6.872;2022-08-02T10:07:10;2.70;;;1.40;;
37529;SDS011;23374;52.758;6.872;2022-08-02T10:09:31;4.37;;;1.80;;
37529;SDS011;23374;52.758;6.872;2022-08-02T10:11:53;4.83;;;1.90;;
37529;SDS011;23374;52.758;6.872;2022-08-02T10:14:14;5.97;;;1.80;;
37529;SDS011;23374;52.758;6.872;2022-08-02T10:16:36;4.80;;;2.00;;
37529;SDS011;23374;52.758;6.872;2022-08-02T10:18:58;2.57;;;1.67;;
37529;SDS011;23374;52.758;6.872;2022-08-02T10:21:30;4.07;;;1.83;;
37529;SDS011;23374;52.758;6.872;2022-08-02T10:24:07;3.03;;;1.90;;
37529;SDS011;23374;52.758;6.872;2022-08-02T10:26:33;4.47;;;2.23;;
37529;SDS011;23374;52.758;6.872;2022-08-02T10:28:54;5.60;;;2.20;;
37529;SDS011;23374;52.758;6.872;2022-08-02T10:31:20;4.53;;;2.20;;
37529;SDS011;23374;52.758;6.872;2022-08-02T10:33:55;2.23;;;1.70;;
37529;SDS011;23374;52.758;6.872;2022-08-02T10:36:19;4.33;;;2.23;;
37529;SDS011;23374;52.758;6.872;2022-08-02T10:38:42;3.73;;;2.30;;
37529;SDS011;23374;52.758;6.872;2022-08-02T10:41:04;2.30;;;1.87;;
37529;SDS011;23374;52.758;6.872;2022-08-02T10:43:41;4.03;;;2.33;;
37529;SDS011;23374;52.758;6.872;2022-08-02T10:46:29;5.77;;;2.40;;
37529;SDS011;23374;52.758;6.872;2022-08-02T10:49:11;4.60;;;2.80;;
37529;SDS011;23374;52.758;6.872;2022-08-02T10:52:04;5.40;;;3.10;;
37529;SDS011;23374;52.758;6.872;2022-08-02T10:54:36;4.17;;;2.20;;
37529;SDS011;23374;52.758;6.872;2022-08-02T10:59:44;4.80;;;2.67;;
37529;SDS011;23374;52.758;6.872;2022-08-02T11:02:05;6.83;;;2.40;;
37529;SDS011;23374;52.758;6.872;2022-08-02T11:07:13;3.90;;;2.20;;
37529;SDS011;23374;52.758;6.872;2022-08-02T11:09:36;3.17;;;2.57;;
37529;SDS011;23374;52.758;6.872;2022-08-02T11:12:02;5.10;;;2.40;;
37529;SDS011;23374;52.758;6.872;2022-08-02T11:14:24;10.90;;;2.77;;
37529;SDS011;23374;52.758;6.872;2022-08-02T11:17:04;8.23;;;2.60;;
37529;SDS011;23374;52.758;6.872;2022-08-02T11:19:26;4.93;;;3.00;;
37529;SDS011;23374;52.758;6.872;2022-08-02T11:22:10;3.60;;;2.43;;
37529;SDS011;23374;52.758;6.872;2022-08-02T11:24:38;3.73;;;2.90;;
37529;SDS011;23374;52.758;6.872;2022-08-02T11:27:03;4.13;;;2.60;;
37529;SDS011;23374;52.758;6.872;2022-08-02T11:29:38;2.63;;;2.30;;
37529;SDS011;23374;52.758;6.872;2022-08-02T11:32:00;4.13;;;2.40;;
37529;SDS011;23374;52.758;6.872;2022-08-02T11:34:23;5.10;;;2.23;;
37529;SDS011;23374;52.758;6.872;2022-08-02T11:36:49;6.20;;;2.63;;
37529;SDS011;23374;52.758;6.872;2022-08-02T11:39:12;3.07;;;2.40;;
37529;SDS011;23374;52.758;6.872;2022-08-02T11:41:34;2.97;;;2.10;;
37529;SDS011;23374;52.758;6.872;2022-08-02T11:43:54;3.00;;;1.73;;
37529;SDS011;23374;52.758;6.872;2022-08-02T11:46:15;3.63;;;2.07;;
37529;SDS011;23374;52.758;6.872;2022-08-02T11:48:36;2.80;;;2.03;;
37529;SDS011;23374;52.758;6.872;2022-08-02T11:51:13;2.60;;;1.90;;
37529;SDS011;23374;52.758;6.872;2022-08-02T11:53:54;8.57;;;1.80;;
37529;SDS011;23374;52.758;6.872;2022-08-02T11:56:28;4.40;;;2.00;;
37529;SDS011;23374;52.758;6.872;2022-08-02T11:59:09;2.37;;;1.70;;
37529;SDS011;23374;52.758;6.872;2022-08-02T12:01:30;2.33;;;1.67;;
37529;SDS011;23374;52.758;6.872;2022-08-02T12:03:51;2.23;;;1.60;;
37529;SDS011;23374;52.758;6.872;2022-08-02T12:06:11;3.13;;;1.70;;
37529;SDS011;23374;52.758;6.872;2022-08-02T12:08:32;2.00;;;1.67;;
37529;SDS011;23374;52.758;6.872;2022-08-02T12:10:55;2.43;;;1.70;;
37529;SDS011;23374;52.758;6.872;2022-08-02T12:13:15;5.73;;;2.40;;
37529;SDS011;23374;52.758;6.872;2022-08-02T12:15:42;3.57;;;2.10;;
37529;SDS011;23374;52.758;6.872;2022-08-02T12:18:11;3.67;;;2.17;;
37529;SDS011;23374;52.758;6.872;2022-08-02T12:20:51;2.60;;;1.77;;
37529;SDS011;23374;52.758;6.872;2022-08-02T12:23:12;3.30;;;1.77;;
37529;SDS011;23374;52.758;6.872;2022-08-02T12:25:32;3.80;;;1.63;;
37529;SDS011;23374;52.758;6.872;2022-08-02T12:28:14;2.23;;;1.70;;
37529;SDS011;23374;52.758;6.872;2022-08-02T12:30:51;3.47;;;1.93;;
37529;SDS011;23374;52.758;6.872;2022-08-02T12:33:20;4.57;;;1.53;;
37529;SDS011;23374;52.758;6.872;2022-08-02T12:35:42;4.77;;;1.80;;
37529;SDS011;23374;52.758;6.872;2022-08-02T12:38:08;5.03;;;1.47;;
37529;SDS011;23374;52.758;6.872;2022-08-02T12:40:31;4.07;;;1.90;;
37529;SDS011;23374;52.758;6.872;2022-08-02T12:42:54;1.63;;;1.50;;
37529;SDS011;23374;52.758;6.872;2022-08-02T12:45:19;3.70;;;1.83;;
37529;SDS011;23374;52.758;6.872;2022-08-02T12:47:46;2.30;;;1.77;;
37529;SDS011;23374;52.758;6.872;2022-08-02T12:50:19;3.00;;;1.70;;
37529;SDS011;23374;52.758;6.872;2022-08-02T12:52:46;3.53;;;1.63;;
37529;SDS011;23374;52.758;6.872;2022-08-02T12:55:21;4.97;;;1.97;;
37529;SDS011;23374;52.758;6.872;2022-08-02T12:57:53;5.40;;;2.20;;
37529;SDS011;23374;52.758;6.872;2022-08-02T13:00:32;3.03;;;2.03;;
37529;SDS011;23374;52.758;6.872;2022-08-02T13:02:56;4.60;;;1.80;;
37529;SDS011;23374;52.758;6.872;2022-08-02T13:05:17;3.53;;;1.80;;
37529;SDS011;23374;52.758;6.872;2022-08-02T13:07:37;3.97;;;1.90;;
37529;SDS011;23374;52.758;6.872;2022-08-02T13:09:57;2.30;;;1.63;;
37529;SDS011;23374;52.758;6.872;2022-08-02T13:12:17;4.13;;;2.17;;
37529;SDS011;23374;52.758;6.872;2022-08-02T13:14:38;2.53;;;1.77;;
37529;SDS011;23374;52.758;6.872;2022-08-02T13:16:59;6.77;;;2.10;;
37529;SDS011;23374;52.758;6.872;2022-08-02T13:19:19;4.90;;;2.00;;
37529;SDS011;23374;52.758;6.872;2022-08-02T13:21:40;4.13;;;1.93;;
37529;SDS011;23374;52.758;6.872;2022-08-02T13:24:01;5.60;;;2.03;;
37529;SDS011;23374;52.758;6.872;2022-08-02T13:26:21;3.77;;;1.80;;
37529;SDS011;23374;52.758;6.872;2022-08-02T13:28:41;3.27;;;2.10;;
37529;SDS011;23374;52.758;6.872;2022-08-02T13:31:01;2.77;;;1.80;;
37529;SDS011;23374;52.758;6.872;2022-08-02T13:33:21;2.23;;;1.83;;
37529;SDS011;23374;52.758;6.872;2022-08-02T13:35:42;3.40;;;2.30;;
37529;SDS011;23374;52.758;6.872;2022-08-02T13:38:03;3.30;;;1.60;;
37529;SDS011;23374;52.758;6.872;2022-08-02T13:40:25;7.60;;;1.90;;
37529;SDS011;23374;52.758;6.872;2022-08-02T13:42:45;4.67;;;1.73;;
37529;SDS011;23374;52.758;6.872;2022-08-02T13:45:07;2.80;;;1.87;;
37529;SDS011;23374;52.758;6.872;2022-08-02T13:47:28;3.37;;;1.70;;
37529;SDS011;23374;52.758;6.872;2022-08-02T13:49:48;3.20;;;1.37;;
37529;SDS011;23374;52.758;6.872;2022-08-02T13:52:09;4.37;;;1.83;;
37529;SDS011;23374;52.758;6.872;2022-08-02T13:54:30;2.53;;;1.90;;
37529;SDS011;23374;52.758;6.872;2022-08-02T13:56:50;2.50;;;1.80;;
37529;SDS011;23374;52.758;6.872;2022-08-02T13:59:10;2.40;;;1.70;;
37529;SDS011;23374;52.758;6.872;2022-08-02T14:01:31;3.07;;;1.90;;
37529;SDS011;23374;52.758;6.872;2022-08-02T14:03:51;3.47;;;2.03;;
37529;SDS011;23374;52.758;6.872;2022-08-02T14:06:12;2.57;;;1.90;;
37529;SDS011;23374;52.758;6.872;2022-08-02T14:08:32;3.13;;;2.13;;
37529;SDS011;23374;52.758;6.872;2022-08-02T14:10:52;4.27;;;2.40;;
37529;SDS011;23374;52.758;6.872;2022-08-02T14:13:13;3.43;;;2.30;;
37529;SDS011;23374;52.758;6.872;2022-08-02T14:15:34;2.67;;;1.90;;
37529;SDS011;23374;52.758;6.872;2022-08-02T14:17:54;2.40;;;1.73;;
37529;SDS011;23374;52.758;6.872;2022-08-02T14:20:14;2.83;;;2.00;;
37529;SDS011;23374;52.758;6.872;2022-08-02T14:22:34;3.73;;;2.20;;
37529;SDS011;23374;52.758;6.872;2022-08-02T14:24:54;2.30;;;1.77;;
37529;SDS011;23374;52.758;6.872;2022-08-02T14:27:14;3.10;;;2.13;;
37529;SDS011;23374;52.758;6.872;2022-08-02T14:29:34;2.93;;;2.03;;
37529;SDS011;23374;52.758;6.872;2022-08-02T14:31:54;4.73;;;2.57;;
37529;SDS011;23374;52.758;6.872;2022-08-02T14:34:14;3.23;;;2.63;;
37529;SDS011;23374;52.758;6.872;2022-08-02T14:36:35;3.80;;;2.43;;
37529;SDS011;23374;52.758;6.872;2022-08-02T14:38:57;3.97;;;2.20;;
37529;SDS011;23374;52.758;6.872;2022-08-02T14:41:17;4.23;;;2.13;;
37529;SDS011;23374;52.758;6.872;2022-08-02T14:43:37;2.63;;;2.30;;
37529;SDS011;23374;52.758;6.872;2022-08-02T14:46:16;3.40;;;2.37;;
37529;SDS011;23374;52.758;6.872;2022-08-02T14:48:36;4.53;;;2.53;;